Time;durP1;ratioP1;P1;durP2;ratioP2;P2;SDS_P1;SDS_P2;PMS_P1;PMS_P2;Temp;Humidity;BMP_temperature;BMP_pressure;BME280_temperature;BME280_humidity;BME280_pressure;Samples;Min_cycle;Max_cycle;Signal;HPM_P1;HPM_P2
2021/07/23 00:01:08;;;;;;;;;16.50;14.00;;;;;;;;4991709;28;8956;-81
2021/07/23 00:03:35;;;;;;;;;10.00;10.00;;;;;;;;5012168;28;8868;-84
2021/07/23 00:06:03;;;;;;;;;13.00;12.20;;;;;;;;5016610;28;8888;-85
2021/07/23 00:08:30;;;;;;;;;13.60;12.20;;;;;;;;5017953;28;8884;-89
2021/07/23 00:10:57;;;;;;;;;11.50;10.00;;;;;;;;5012352;28;8832;-93
2021/07/23 00:13:24;;;;;;;;;12.60;12.40;;;;;;;;5014580;28;8849;-84
2021/07/23 00:15:53;;;;;;;;;11.20;11.20;;;;;;;;5006739;28;8852;-85
2021/07/23 00:18:20;;;;;;;;;11.75;11.75;;;;;;;;5007675;28;8894;-80
2021/07/23 00:20:47;;;;;;;;;11.00;11.00;;;;;;;;5013670;28;9641;-92
2021/07/23 00:23:14;;;;;;;;;10.00;10.00;;;;;;;;5008296;28;8920;-91
2021/07/23 00:25:41;;;;;;;;;11.75;11.75;;;;;;;;5007130;28;8989;-88
2021/07/23 00:28:09;;;;;;;;;12.00;10.25;;;;;;;;5012941;28;8880;-84
2021/07/23 00:30:36;;;;;;;;;14.00;12.00;;;;;;;;5005170;28;8830;-84
2021/07/23 00:33:05;;;;;;;;;15.75;12.50;;;;;;;;5004558;28;8863;-88
2021/07/23 00:35:32;;;;;;;;;13.75;13.75;;;;;;;;5006138;28;8893;-89
2021/07/23 00:38:00;;;;;;;;;8.50;7.50;;;;;;;;5011449;28;8884;-86
2021/07/23 00:40:28;;;;;;;;;12.75;12.75;;;;;;;;5016647;28;8878;-83
2021/07/23 00:42:55;;;;;;;;;13.25;12.00;;;;;;;;5016334;28;8888;-90
2021/07/23 00:45:23;;;;;;;;;12.25;12.25;;;;;;;;5012553;28;8887;-75
2021/07/23 00:47:54;;;;;;;;;10.75;9.75;;;;;;;;5014528;28;8997;-93
2021/07/23 00:50:22;;;;;;;;;11.75;9.00;;;;;;;;5006275;28;8861;-92
2021/07/23 00:52:50;;;;;;;;;13.75;12.75;;;;;;;;5006497;28;8886;-82
2021/07/23 00:55:18;;;;;;;;;13.50;13.50;;;;;;;;5009673;28;8863;-78
2021/07/23 00:57:46;;;;;;;;;16.25;15.00;;;;;;;;5016850;28;9436;-81
2021/07/23 01:00:14;;;;;;;;;13.75;13.25;;;;;;;;5010666;28;9637;-84
2021/07/23 01:02:42;;;;;;;;;13.00;11.25;;;;;;;;5015619;28;9009;-82
2021/07/23 01:05:10;;;;;;;;;13.50;13.50;;;;;;;;5012832;28;8883;-89
2021/07/23 01:07:39;;;;;;;;;18.00;16.25;;;;;;;;5008416;28;9701;-91
2021/07/23 01:10:08;;;;;;;;;13.25;13.25;;;;;;;;5018887;28;8868;-91
2021/07/23 01:12:35;;;;;;;;;11.00;11.00;;;;;;;;5010423;28;8871;-76
2021/07/23 01:15:03;;;;;;;;;14.75;13.00;;;;;;;;4995730;28;8872;-83
2021/07/23 01:17:31;;;;;;;;;10.50;10.50;;;;;;;;5015681;28;8889;-74
2021/07/23 01:20:03;;;;;;;;;13.25;12.25;;;;;;;;5012628;28;8875;-91
2021/07/23 01:22:33;;;;;;;;;17.75;12.75;;;;;;;;5006910;28;8894;-81
2021/07/23 01:25:02;;;;;;;;;12.25;12.25;;;;;;;;5018602;28;8959;-79
2021/07/23 01:27:32;;;;;;;;;14.50;13.75;;;;;;;;5012117;28;8981;-85
2021/07/23 01:30:07;;;;;;;;;11.50;11.50;;;;;;;;5009725;28;8975;-75
2021/07/23 01:32:34;;;;;;;;;16.25;16.00;;;;;;;;5006963;28;8831;-90
2021/07/23 01:35:02;;;;;;;;;19.50;16.50;;;;;;;;5003664;28;8887;-81
2021/07/23 01:37:30;;;;;;;;;18.75;13.25;;;;;;;;4994117;28;8886;-85
2021/07/23 01:39:58;;;;;;;;;15.00;14.25;;;;;;;;5006456;28;9455;-89
2021/07/23 01:42:28;;;;;;;;;13.75;13.75;;;;;;;;5009705;28;9593;-82
2021/07/23 01:44:55;;;;;;;;;15.50;15.50;;;;;;;;5006350;28;9675;-85
2021/07/23 01:47:23;;;;;;;;;17.00;15.00;;;;;;;;5003129;28;8886;-83
2021/07/23 01:49:51;;;;;;;;;15.25;15.25;;;;;;;;4996643;28;8967;-77
2021/07/23 01:52:18;;;;;;;;;14.00;14.00;;;;;;;;4992556;28;8989;-79
2021/07/23 01:54:45;;;;;;;;;19.75;19.00;;;;;;;;5004751;28;9515;-82
2021/07/23 01:57:13;;;;;;;;;14.50;12.75;;;;;;;;5008952;28;8919;-89
2021/07/23 01:59:41;;;;;;;;;20.00;17.00;;;;;;;;5017649;28;8896;-82
2021/07/23 02:02:08;;;;;;;;;21.75;18.75;;;;;;;;5006520;28;8825;-87
2021/07/23 02:04:36;;;;;;;;;22.00;22.00;;;;;;;;5014245;28;8878;-77
2021/07/23 02:07:04;;;;;;;;;13.33;11.00;;;;;;;;5012076;28;8868;-78
2021/07/23 02:09:31;;;;;;;;;21.00;21.00;;;;;;;;5007498;28;8899;-81
2021/07/23 02:11:58;;;;;;;;;20.25;20.25;;;;;;;;5006752;28;8933;-81
2021/07/23 02:14:28;;;;;;;;;23.25;21.25;;;;;;;;5005825;28;9680;-86
2021/07/23 02:16:57;;;;;;;;;22.75;21.50;;;;;;;;5009507;28;8873;-81
2021/07/23 02:19:24;;;;;;;;;20.50;18.75;;;;;;;;5006849;28;8865;-87
2021/07/23 02:21:51;;;;;;;;;20.00;20.00;;;;;;;;5005648;28;8851;-81
2021/07/23 02:24:19;;;;;;;;;21.00;19.25;;;;;;;;5012051;28;8909;-85
2021/07/23 02:26:46;;;;;;;;;20.50;20.50;;;;;;;;5011054;28;8883;-87
2021/07/23 02:29:13;;;;;;;;;16.50;15.75;;;;;;;;5008104;28;8899;-87
2021/07/23 02:31:42;;;;;;;;;15.00;15.00;;;;;;;;5010177;28;8807;-88
2021/07/23 02:34:10;;;;;;;;;17.50;17.50;;;;;;;;5004427;28;8874;-85
2021/07/23 02:36:37;;;;;;;;;20.00;17.75;;;;;;;;5005924;28;9041;-85
2021/07/23 02:39:05;;;;;;;;;18.75;16.50;;;;;;;;5012819;28;8897;-82
2021/07/23 02:41:32;;;;;;;;;17.75;15.25;;;;;;;;5004633;28;8930;-88
2021/07/23 02:43:59;;;;;;;;;24.00;21.25;;;;;;;;5019943;28;8856;-87
2021/07/23 02:46:26;;;;;;;;;20.50;16.25;;;;;;;;5005738;28;8876;-85
2021/07/23 02:48:53;;;;;;;;;22.25;19.00;;;;;;;;5021899;28;8866;-83
2021/07/23 02:51:22;;;;;;;;;19.75;18.75;;;;;;;;5005740;28;8881;-77
2021/07/23 02:53:49;;;;;;;;;15.25;14.50;;;;;;;;5022697;28;8853;-75
2021/07/23 02:56:17;;;;;;;;;18.75;17.00;;;;;;;;5006637;28;8954;-85
2021/07/23 02:58:46;;;;;;;;;15.00;14.75;;;;;;;;4996637;28;8864;-84
2021/07/23 03:01:13;;;;;;;;;19.75;19.00;;;;;;;;5017794;28;8833;-86
2021/07/23 03:03:41;;;;;;;;;26.25;22.00;;;;;;;;5011829;28;9627;-90
2021/07/23 03:06:08;;;;;;;;;20.00;19.00;;;;;;;;5007772;28;8892;-87
2021/07/23 03:08:37;;;;;;;;;21.75;19.50;;;;;;;;5011352;28;8887;-91
2021/07/23 03:11:05;;;;;;;;;17.25;17.25;;;;;;;;5004042;28;8879;-89
2021/07/23 03:13:32;;;;;;;;;18.00;16.50;;;;;;;;4984308;28;8874;-90
2021/07/23 03:15:59;;;;;;;;;18.75;16.75;;;;;;;;5001947;28;8863;-87
2021/07/23 03:18:26;;;;;;;;;24.00;21.50;;;;;;;;5001236;28;8839;-81
2021/07/23 03:20:54;;;;;;;;;26.00;23.75;;;;;;;;5005589;28;8876;-81
2021/07/23 03:23:21;;;;;;;;;20.75;18.50;;;;;;;;5003665;28;8855;-84
2021/07/23 03:25:50;;;;;;;;;20.00;19.50;;;;;;;;5003402;28;8973;-80
2021/07/23 03:28:17;;;;;;;;;23.50;20.00;;;;;;;;5002313;28;8882;-86
2021/07/23 03:30:44;;;;;;;;;18.25;17.00;;;;;;;;4994819;28;8819;-91
2021/07/23 03:33:12;;;;;;;;;20.25;20.25;;;;;;;;5002312;28;8894;-92
2021/07/23 03:35:39;;;;;;;;;17.50;16.75;;;;;;;;5002328;28;8843;-85
2021/07/23 03:38:07;;;;;;;;;18.00;18.00;;;;;;;;5001131;28;8871;-77
2021/07/23 03:40:34;;;;;;;;;17.00;15.75;;;;;;;;5002433;28;8902;-83
2021/07/23 03:43:03;;;;;;;;;17.75;16.00;;;;;;;;5000730;28;9641;-86
2021/07/23 03:45:32;;;;;;;;;16.00;16.00;;;;;;;;5003288;28;9618;-91
2021/07/23 03:47:59;;;;;;;;;23.25;21.00;;;;;;;;5002299;28;8871;-81
2021/07/23 03:50:26;;;;;;;;;20.00;18.00;;;;;;;;5000508;28;8881;-80
2021/07/23 03:52:54;;;;;;;;;21.00;19.25;;;;;;;;5006962;28;8898;-90
2021/07/23 03:55:21;;;;;;;;;23.00;20.25;;;;;;;;5004804;28;9000;-88
2021/07/23 03:57:48;;;;;;;;;17.25;17.25;;;;;;;;5004164;28;8869;-87
2021/07/23 04:00:18;;;;;;;;;21.00;21.00;;;;;;;;5003845;28;8997;-76
2021/07/23 04:02:45;;;;;;;;;21.00;19.00;;;;;;;;5003771;28;8867;-85
2021/07/23 04:05:13;;;;;;;;;25.75;22.75;;;;;;;;5011975;28;8882;-83
2021/07/23 04:07:40;;;;;;;;;23.75;21.75;;;;;;;;5013627;28;8855;-90
2021/07/23 04:10:13;;;;;;;;;24.00;20.75;;;;;;;;5013322;28;8839;-87
2021/07/23 04:12:40;;;;;;;;;26.25;21.00;;;;;;;;5018572;28;8879;-76
2021/07/23 04:15:11;;;;;;;;;22.25;21.00;;;;;;;;5019807;28;8871;-77
2021/07/23 04:17:40;;;;;;;;;20.25;20.25;;;;;;;;5010666;28;8941;-88
2021/07/23 04:20:08;;;;;;;;;19.75;19.50;;;;;;;;5013641;28;8873;-93
2021/07/23 04:22:35;;;;;;;;;22.00;21.00;;;;;;;;5006132;28;8861;-88
2021/07/23 04:25:03;;;;;;;;;26.00;20.75;;;;;;;;5008367;28;9676;-76
2021/07/23 04:27:30;;;;;;;;;18.50;18.00;;;;;;;;5006444;28;9005;-83
2021/07/23 04:29:57;;;;;;;;;22.75;21.75;;;;;;;;5007477;28;8884;-87
2021/07/23 04:32:24;;;;;;;;;25.25;23.50;;;;;;;;5010220;28;8827;-86
2021/07/23 04:34:53;;;;;;;;;27.50;24.50;;;;;;;;5013325;28;8878;-81
2021/07/23 04:37:20;;;;;;;;;28.25;24.50;;;;;;;;5006787;28;9009;-87
2021/07/23 04:39:47;;;;;;;;;25.75;24.50;;;;;;;;5005454;28;8897;-84
2021/07/23 04:42:15;;;;;;;;;22.25;22.25;;;;;;;;5006051;28;9010;-88
2021/07/23 04:44:42;;;;;;;;;25.50;25.50;;;;;;;;5006396;28;8878;-87
2021/07/23 04:47:09;;;;;;;;;25.00;23.50;;;;;;;;5005207;28;8874;-78
2021/07/23 04:49:36;;;;;;;;;25.00;24.00;;;;;;;;5005022;28;8916;-83
2021/07/23 04:52:06;;;;;;;;;20.50;20.00;;;;;;;;5006084;28;8866;-81
2021/07/23 04:54:33;;;;;;;;;26.75;22.50;;;;;;;;5006224;28;8902;-85
2021/07/23 04:57:01;;;;;;;;;20.25;20.25;;;;;;;;5004931;28;9005;-90
2021/07/23 04:59:28;;;;;;;;;25.25;18.00;;;;;;;;5007319;28;9038;-86
2021/07/23 05:01:55;;;;;;;;;29.50;27.50;;;;;;;;5005290;28;8861;-88
2021/07/23 05:04:23;;;;;;;;;31.75;29.50;;;;;;;;5005980;28;8857;-82
2021/07/23 05:06:50;;;;;;;;;29.50;28.25;;;;;;;;5000881;28;8894;-83
2021/07/23 05:09:18;;;;;;;;;24.25;21.50;;;;;;;;5005322;28;8877;-87
2021/07/23 05:11:46;;;;;;;;;30.25;28.25;;;;;;;;5004629;28;9658;-90
2021/07/23 05:14:14;;;;;;;;;31.50;29.00;;;;;;;;5003999;28;8867;-80
2021/07/23 05:16:42;;;;;;;;;35.00;31.75;;;;;;;;5005312;28;8883;-79
2021/07/23 05:19:12;;;;;;;;;34.00;32.00;;;;;;;;5006089;28;9655;-81
2021/07/23 05:21:40;;;;;;;;;34.00;30.50;;;;;;;;5010751;28;9775;-85
2021/07/23 05:24:07;;;;;;;;;31.00;29.75;;;;;;;;5004225;28;8887;-81
2021/07/23 05:26:38;;;;;;;;;34.00;28.50;;;;;;;;5006899;28;8898;-77
2021/07/23 05:29:05;;;;;;;;;34.25;28.50;;;;;;;;5004687;28;9004;-91
2021/07/23 05:31:33;;;;;;;;;30.00;29.00;;;;;;;;5024404;28;8799;-83
2021/07/23 05:34:01;;;;;;;;;36.25;32.75;;;;;;;;5024657;28;8892;-87
2021/07/23 05:36:29;;;;;;;;;30.00;29.75;;;;;;;;5023597;28;8878;-84
2021/07/23 05:38:56;;;;;;;;;31.25;27.75;;;;;;;;5021799;28;8884;-82
2021/07/23 05:41:24;;;;;;;;;26.50;26.50;;;;;;;;5002009;28;8906;-73
2021/07/23 05:43:52;;;;;;;;;30.75;29.50;;;;;;;;5022140;28;8849;-74
2021/07/23 05:46:20;;;;;;;;;31.25;28.50;;;;;;;;5021277;28;8946;-75
2021/07/23 05:48:47;;;;;;;;;29.50;26.25;;;;;;;;5023398;28;8891;-80
2021/07/23 05:51:14;;;;;;;;;32.75;32.25;;;;;;;;5022435;28;8907;-71
2021/07/23 05:53:41;;;;;;;;;30.25;29.25;;;;;;;;5021470;28;8880;-75
2021/07/23 05:56:09;;;;;;;;;32.50;32.00;;;;;;;;5023535;28;8910;-78
2021/07/23 05:58:37;;;;;;;;;31.25;27.75;;;;;;;;5023080;28;8883;-71
2021/07/23 06:01:07;;;;;;;;;29.75;25.50;;;;;;;;5024396;28;10187;-75
2021/07/23 06:03:35;;;;;;;;;28.50;28.50;;;;;;;;5023219;28;8877;-76
2021/07/23 06:06:02;;;;;;;;;32.75;30.25;;;;;;;;5024407;28;8915;-79
2021/07/23 06:08:30;;;;;;;;;29.00;25.75;;;;;;;;5023394;28;9628;-79
2021/07/23 06:10:57;;;;;;;;;32.50;27.50;;;;;;;;5020517;28;8913;-86
2021/07/23 06:13:24;;;;;;;;;32.00;31.00;;;;;;;;5023583;28;8852;-81
2021/07/23 06:15:51;;;;;;;;;27.75;27.25;;;;;;;;5023102;28;8892;-73
2021/07/23 06:18:20;;;;;;;;;27.50;27.50;;;;;;;;5021674;28;8880;-75
2021/07/23 06:20:47;;;;;;;;;29.75;25.75;;;;;;;;5023891;28;9520;-73
2021/07/23 06:23:15;;;;;;;;;28.50;28.50;;;;;;;;5023639;28;8884;-75
2021/07/23 06:25:43;;;;;;;;;26.75;22.25;;;;;;;;5029963;28;8883;-75
2021/07/23 06:28:10;;;;;;;;;30.75;30.00;;;;;;;;5024728;28;8875;-71
2021/07/23 06:30:37;;;;;;;;;34.75;29.00;;;;;;;;5019245;28;8819;-78
2021/07/23 06:33:05;;;;;;;;;23.75;19.50;;;;;;;;5012214;28;8914;-76
2021/07/23 06:35:33;;;;;;;;;22.00;20.25;;;;;;;;5014454;28;8870;-77
2021/07/23 06:38:00;;;;;;;;;26.50;26.50;;;;;;;;5019389;28;8983;-74
2021/07/23 06:40:28;;;;;;;;;19.00;16.00;;;;;;;;5020289;28;8983;-80
2021/07/23 06:42:55;;;;;;;;;26.00;22.50;;;;;;;;5013251;28;8984;-74
2021/07/23 06:45:22;;;;;;;;;27.00;25.75;;;;;;;;5021613;28;8892;-80
2021/07/23 06:47:49;;;;;;;;;26.75;22.75;;;;;;;;5007299;28;8898;-72
2021/07/23 06:50:17;;;;;;;;;25.00;23.50;;;;;;;;5020977;28;8926;-81
2021/07/23 06:52:45;;;;;;;;;24.25;22.75;;;;;;;;5016189;28;8878;-71
2021/07/23 06:55:13;;;;;;;;;26.25;24.00;;;;;;;;5007857;28;9265;-81
2021/07/23 06:57:40;;;;;;;;;25.00;24.00;;;;;;;;5020987;28;9472;-72
2021/07/23 07:00:09;;;;;;;;;28.00;26.50;;;;;;;;5013870;28;9000;-76
2021/07/23 07:02:36;;;;;;;;;25.75;24.50;;;;;;;;5004431;28;8886;-81
2021/07/23 07:05:04;;;;;;;;;19.50;19.50;;;;;;;;5003893;28;8855;-75
2021/07/23 07:07:31;;;;;;;;;26.00;22.75;;;;;;;;4999942;28;8881;-72
2021/07/23 07:10:00;;;;;;;;;23.50;22.00;;;;;;;;5004427;28;8874;-72
2021/07/23 07:12:27;;;;;;;;;27.50;27.00;;;;;;;;4998172;28;8882;-78
2021/07/23 07:14:54;;;;;;;;;31.00;28.00;;;;;;;;5002547;28;9386;-82
2021/07/23 07:17:22;;;;;;;;;22.50;21.75;;;;;;;;5010565;28;8882;-75
2021/07/23 07:19:49;;;;;;;;;23.75;23.75;;;;;;;;5006286;28;8910;-79
2021/07/23 07:22:17;;;;;;;;;25.00;24.50;;;;;;;;5002722;28;9004;-79
2021/07/23 07:24:44;;;;;;;;;21.75;20.75;;;;;;;;5003246;28;8887;-76
2021/07/23 07:27:14;;;;;;;;;24.50;24.50;;;;;;;;5007278;28;9522;-81
2021/07/23 07:29:41;;;;;;;;;22.00;18.50;;;;;;;;5014090;28;8873;-79
2021/07/23 07:32:09;;;;;;;;;18.75;17.75;;;;;;;;5024931;28;9611;-80
2021/07/23 07:34:36;;;;;;;;;21.75;21.25;;;;;;;;5024881;28;8892;-80
2021/07/23 07:37:05;;;;;;;;;20.75;20.50;;;;;;;;5025721;28;8849;-83
2021/07/23 07:39:33;;;;;;;;;23.50;21.50;;;;;;;;5022889;28;8857;-80
2021/07/23 07:42:02;;;;;;;;;19.75;19.75;;;;;;;;5023183;28;9008;-79
2021/07/23 07:44:31;;;;;;;;;22.50;20.50;;;;;;;;5026295;28;8889;-81
2021/07/23 07:46:58;;;;;;;;;24.50;22.25;;;;;;;;5021146;28;9011;-78
2021/07/23 07:49:25;;;;;;;;;20.50;20.50;;;;;;;;5025881;28;8872;-80
2021/07/23 07:51:52;;;;;;;;;25.00;23.00;;;;;;;;5024910;28;8876;-80
2021/07/23 07:54:20;;;;;;;;;18.40;17.80;;;;;;;;5025818;28;8857;-78
2021/07/23 07:56:47;;;;;;;;;23.20;21.40;;;;;;;;5024890;28;8872;-79
2021/07/23 07:59:14;;;;;;;;;22.60;21.60;;;;;;;;5025339;28;8853;-78
2021/07/23 08:01:43;;;;;;;;;22.80;19.60;;;;;;;;5025145;28;8825;-79
2021/07/23 08:04:12;;;;;;;;;22.20;22.20;;;;;;;;5024264;28;8848;-79
2021/07/23 08:06:41;;;;;;;;;23.20;21.60;;;;;;;;5025897;28;8853;-78
2021/07/23 08:09:11;;;;;;;;;21.20;20.40;;;;;;;;5023940;28;8877;-77
2021/07/23 08:11:39;;;;;;;;;20.20;18.60;;;;;;;;5025671;28;8857;-78
2021/07/23 08:14:06;;;;;;;;;17.00;15.60;;;;;;;;5024072;28;8889;-77
2021/07/23 08:16:34;;;;;;;;;23.40;23.40;;;;;;;;5024859;28;8918;-78
2021/07/23 08:19:03;;;;;;;;;19.20;17.40;;;;;;;;5024347;28;9579;-79
2021/07/23 08:21:32;;;;;;;;;24.00;21.20;;;;;;;;5029448;28;8982;-81
2021/07/23 08:24:01;;;;;;;;;21.60;20.80;;;;;;;;5028355;28;8853;-79
2021/07/23 08:26:29;;;;;;;;;20.60;20.60;;;;;;;;5025463;28;9022;-85
2021/07/23 08:28:56;;;;;;;;;18.20;16.60;;;;;;;;5026238;28;8904;-79
2021/07/23 08:31:24;;;;;;;;;17.60;14.80;;;;;;;;5022061;28;8878;-82
2021/07/23 08:33:51;;;;;;;;;20.20;20.20;;;;;;;;5006030;28;8905;-78
2021/07/23 08:36:20;;;;;;;;;16.60;16.60;;;;;;;;5021274;28;8979;-79
2021/07/23 08:38:47;;;;;;;;;22.60;19.40;;;;;;;;5022259;28;8869;-77
2021/07/23 08:41:15;;;;;;;;;17.60;17.20;;;;;;;;5024663;28;8841;-79
2021/07/23 08:43:43;;;;;;;;;21.20;19.80;;;;;;;;5023433;28;8857;-82
2021/07/23 08:46:11;;;;;;;;;17.00;17.00;;;;;;;;5025251;28;8888;-83
2021/07/23 08:48:38;;;;;;;;;19.20;18.40;;;;;;;;5025434;28;8884;-78
2021/07/23 08:51:06;;;;;;;;;24.40;20.60;;;;;;;;5008538;28;8893;-80
2021/07/23 08:53:35;;;;;;;;;20.20;19.80;;;;;;;;5007864;28;8865;-80
2021/07/23 08:56:02;;;;;;;;;19.00;19.00;;;;;;;;5025840;28;8870;-78
2021/07/23 08:58:30;;;;;;;;;19.20;17.00;;;;;;;;5025892;28;8854;-78
2021/07/23 09:00:58;;;;;;;;;20.80;20.80;;;;;;;;5024302;28;8783;-78
2021/07/23 09:03:29;;;;;;;;;21.20;21.20;;;;;;;;5026544;28;8868;-85
2021/07/23 09:05:57;;;;;;;;;22.60;22.60;;;;;;;;5024831;28;8868;-78
2021/07/23 09:08:25;;;;;;;;;23.00;21.80;;;;;;;;5008385;28;8869;-76
2021/07/23 09:11:05;;;;;;;;;20.60;20.60;;;;;;;;5017588;28;8880;-75
2021/07/23 09:13:33;;;;;;;;;22.20;19.00;;;;;;;;5025256;28;8900;-78
2021/07/23 09:16:00;;;;;;;;;19.20;19.20;;;;;;;;5021324;28;8887;-77
2021/07/23 09:18:31;;;;;;;;;19.00;19.00;;;;;;;;5024312;28;8878;-77
2021/07/23 09:20:59;;;;;;;;;18.40;18.40;;;;;;;;5026376;28;8857;-78
2021/07/23 09:23:29;;;;;;;;;19.40;17.80;;;;;;;;5007335;28;8864;-79
2021/07/23 09:25:57;;;;;;;;;18.20;18.20;;;;;;;;5018668;28;8918;-78
2021/07/23 09:28:33;;;;;;;;;20.00;19.60;;;;;;;;5021285;28;8857;-78
2021/07/23 09:31:01;;;;;;;;;20.20;17.80;;;;;;;;5018453;28;8849;-79
2021/07/23 09:33:31;;;;;;;;;17.20;16.80;;;;;;;;5005641;28;8878;-78
2021/07/23 09:36:02;;;;;;;;;14.40;14.40;;;;;;;;4999645;28;9002;-81
2021/07/23 09:38:35;;;;;;;;;16.20;14.60;;;;;;;;5004922;28;8878;-79
2021/07/23 09:41:03;;;;;;;;;16.00;16.00;;;;;;;;5005187;28;8897;-78
2021/07/23 09:43:35;;;;;;;;;19.00;19.00;;;;;;;;5008026;28;8874;-78
2021/07/23 09:46:25;;;;;;;;;17.80;16.60;;;;;;;;5005367;28;8879;-82
2021/07/23 09:48:53;;;;;;;;;18.00;17.00;;;;;;;;4999645;28;8883;-79
2021/07/23 09:51:22;;;;;;;;;16.00;15.20;;;;;;;;5008830;28;8906;-78
2021/07/23 09:53:49;;;;;;;;;18.80;18.40;;;;;;;;5005758;28;9018;-79
2021/07/23 09:56:18;;;;;;;;;17.60;16.80;;;;;;;;5004850;28;8874;-80
2021/07/23 09:58:52;;;;;;;;;19.20;19.20;;;;;;;;5004686;28;8970;-78
2021/07/23 10:01:24;;;;;;;;;18.80;17.20;;;;;;;;5007664;28;8832;-80
2021/07/23 10:03:55;;;;;;;;;19.40;17.40;;;;;;;;5006794;28;9647;-79
2021/07/23 10:06:26;;;;;;;;;16.60;16.40;;;;;;;;5005923;28;9628;-82
2021/07/23 10:08:57;;;;;;;;;14.40;14.40;;;;;;;;5003358;28;8890;-79
2021/07/23 10:11:25;;;;;;;;;16.40;15.00;;;;;;;;5002977;28;8875;-81
2021/07/23 10:13:56;;;;;;;;;19.60;18.20;;;;;;;;5004816;28;8886;-81
2021/07/23 10:16:24;;;;;;;;;18.80;18.00;;;;;;;;5004265;28;8874;-80
2021/07/23 10:18:52;;;;;;;;;18.80;18.80;;;;;;;;5002528;28;8871;-79
2021/07/23 10:21:19;;;;;;;;;6.80;6.80;;;;;;;;5005644;28;9004;-79
2021/07/23 10:23:48;;;;;;;;;16.40;16.20;;;;;;;;5005538;28;9773;-79
2021/07/23 10:26:17;;;;;;;;;19.40;17.20;;;;;;;;5005335;28;8907;-79
2021/07/23 10:29:01;;;;;;;;;19.60;19.60;;;;;;;;5007685;28;8868;-80
2021/07/23 10:31:47;;;;;;;;;19.40;19.20;;;;;;;;4999348;28;8961;-82
2021/07/23 10:34:34;;;;;;;;;18.40;18.40;;;;;;;;5003240;28;9004;-80
2021/07/23 10:37:02;;;;;;;;;18.80;16.80;;;;;;;;5002038;28;8890;-78
2021/07/23 10:39:30;;;;;;;;;17.60;17.60;;;;;;;;5002725;28;8983;-81
2021/07/23 10:42:31;;;;;;;;;23.80;23.80;;;;;;;;5000044;28;8874;-80
2021/07/23 10:45:00;;;;;;;;;20.00;18.20;;;;;;;;4938699;28;8878;-81
2021/07/23 10:47:40;;;;;;;;;17.20;16.20;;;;;;;;4941532;28;8885;-80
2021/07/23 10:50:10;;;;;;;;;18.40;17.80;;;;;;;;4965489;28;8863;-81
2021/07/23 10:52:38;;;;;;;;;21.60;20.60;;;;;;;;5003839;28;8874;-79
2021/07/23 10:55:14;;;;;;;;;20.20;20.20;;;;;;;;5002292;28;8872;-80
2021/07/23 10:57:41;;;;;;;;;20.60;19.80;;;;;;;;5001494;28;8883;-79
2021/07/23 11:00:11;;;;;;;;;15.00;13.60;;;;;;;;5003037;28;9699;-82
2021/07/23 11:02:43;;;;;;;;;19.40;19.40;;;;;;;;5002789;28;8899;-78
2021/07/23 11:05:13;;;;;;;;;19.00;19.00;;;;;;;;5003609;28;8886;-78
2021/07/23 11:07:40;;;;;;;;;18.20;16.40;;;;;;;;5003108;28;9647;-86
2021/07/23 11:10:11;;;;;;;;;22.20;22.20;;;;;;;;5003800;28;9561;-79
2021/07/23 11:12:42;;;;;;;;;17.40;17.40;;;;;;;;5001855;28;8993;-81
2021/07/23 11:15:12;;;;;;;;;20.20;19.40;;;;;;;;5002028;28;9292;-79
2021/07/23 11:17:54;;;;;;;;;14.80;14.80;;;;;;;;5000987;28;9741;-82
2021/07/23 11:20:26;;;;;;;;;17.60;17.00;;;;;;;;5001614;28;8882;-79
2021/07/23 11:22:53;;;;;;;;;16.80;16.80;;;;;;;;5002265;28;8991;-80
2021/07/23 11:25:21;;;;;;;;;18.00;18.00;;;;;;;;5001060;28;8900;-76
2021/07/23 11:27:52;;;;;;;;;21.40;18.20;;;;;;;;5003884;28;8882;-81
2021/07/23 11:30:23;;;;;;;;;18.20;18.00;;;;;;;;5001974;28;8993;-82
2021/07/23 11:32:53;;;;;;;;;16.80;16.80;;;;;;;;5006734;28;8881;-79
2021/07/23 11:35:20;;;;;;;;;18.80;18.80;;;;;;;;5003682;28;8857;-78
2021/07/23 11:37:48;;;;;;;;;20.40;19.40;;;;;;;;5001146;28;10241;-79
2021/07/23 11:40:16;;;;;;;;;15.00;15.00;;;;;;;;5006599;28;8949;-81
2021/07/23 11:42:50;;;;;;;;;17.00;16.80;;;;;;;;5007711;28;8897;-80
2021/07/23 11:45:18;;;;;;;;;18.60;15.80;;;;;;;;5002584;28;8878;-80
2021/07/23 11:47:48;;;;;;;;;16.60;16.60;;;;;;;;5006648;28;8902;-79
2021/07/23 11:50:17;;;;;;;;;16.00;16.00;;;;;;;;4999656;28;8867;-77
2021/07/23 11:52:46;;;;;;;;;15.00;15.00;;;;;;;;5004478;28;9021;-82
2021/07/23 11:55:14;;;;;;;;;18.20;17.60;;;;;;;;5002243;28;8993;-82
2021/07/23 11:57:43;;;;;;;;;14.00;14.00;;;;;;;;5005979;28;9651;-82
2021/07/23 12:00:23;;;;;;;;;18.00;18.00;;;;;;;;5003723;28;9740;-81
2021/07/23 12:02:53;;;;;;;;;17.00;15.40;;;;;;;;4988846;28;8863;-82
2021/07/23 12:05:20;;;;;;;;;15.20;15.20;;;;;;;;5003722;28;8945;-81
2021/07/23 12:07:58;;;;;;;;;15.80;15.80;;;;;;;;5003650;28;8888;-82
2021/07/23 12:10:26;;;;;;;;;15.40;14.80;;;;;;;;5003297;28;8890;-86
2021/07/23 12:12:53;;;;;;;;;13.80;13.80;;;;;;;;4986429;28;8870;-80
2021/07/23 12:15:22;;;;;;;;;18.40;17.20;;;;;;;;5004435;28;8866;-81
2021/07/23 12:17:51;;;;;;;;;18.00;17.60;;;;;;;;5004065;28;8871;-83
2021/07/23 12:20:28;;;;;;;;;17.80;17.80;;;;;;;;5006700;28;8893;-79
2021/07/23 12:23:01;;;;;;;;;19.80;17.20;;;;;;;;5006710;28;8843;-80
2021/07/23 12:25:29;;;;;;;;;16.40;15.80;;;;;;;;5007527;28;9800;-81
2021/07/23 12:28:07;;;;;;;;;15.00;15.00;;;;;;;;5008748;28;8877;-82
2021/07/23 12:30:35;;;;;;;;;14.80;14.80;;;;;;;;5016382;28;8812;-80
2021/07/23 12:33:17;;;;;;;;;15.80;14.40;;;;;;;;5026323;28;8881;-80
2021/07/23 12:35:49;;;;;;;;;16.60;15.60;;;;;;;;5024723;28;8943;-79
2021/07/23 12:38:17;;;;;;;;;14.60;12.80;;;;;;;;5024666;28;8852;-79
2021/07/23 12:40:49;;;;;;;;;17.80;17.80;;;;;;;;5025805;28;8912;-80
2021/07/23 12:43:18;;;;;;;;;19.60;18.60;;;;;;;;5021748;28;8895;-83
2021/07/23 12:45:45;;;;;;;;;17.00;14.60;;;;;;;;5022831;28;8857;-78
2021/07/23 12:48:15;;;;;;;;;17.60;17.60;;;;;;;;5021551;28;8882;-79
2021/07/23 12:50:43;;;;;;;;;16.80;16.00;;;;;;;;5025182;28;8963;-79
2021/07/23 12:53:11;;;;;;;;;18.80;17.00;;;;;;;;5007956;28;9774;-79
2021/07/23 12:55:39;;;;;;;;;13.80;13.80;;;;;;;;5023980;28;8880;-79
2021/07/23 12:58:06;;;;;;;;;16.40;16.40;;;;;;;;5024547;28;8963;-79
2021/07/23 13:00:34;;;;;;;;;18.60;18.00;;;;;;;;5022027;28;8833;-79
2021/07/23 13:03:01;;;;;;;;;16.60;15.40;;;;;;;;5023451;28;8864;-77
2021/07/23 13:05:35;;;;;;;;;18.60;16.60;;;;;;;;5000852;28;8875;-79
2021/07/23 13:08:04;;;;;;;;;15.80;13.80;;;;;;;;5020543;28;8856;-83
2021/07/23 13:10:34;;;;;;;;;15.00;13.00;;;;;;;;5022767;28;8853;-81
2021/07/23 13:13:03;;;;;;;;;14.20;14.20;;;;;;;;5022728;28;8899;-79
2021/07/23 13:15:30;;;;;;;;;16.60;16.20;;;;;;;;5025627;28;9003;-78
2021/07/23 13:17:58;;;;;;;;;12.20;12.20;;;;;;;;5022897;28;8931;-80
2021/07/23 13:20:25;;;;;;;;;14.40;14.40;;;;;;;;5026117;28;8870;-81
2021/07/23 13:22:54;;;;;;;;;14.80;13.20;;;;;;;;5025004;28;8865;-78
2021/07/23 13:25:21;;;;;;;;;15.00;14.80;;;;;;;;5023272;28;8872;-83
2021/07/23 13:27:51;;;;;;;;;11.40;11.40;;;;;;;;5024844;28;8844;-81
2021/07/23 13:30:19;;;;;;;;;15.40;15.40;;;;;;;;5019679;28;8921;-80
2021/07/23 13:32:48;;;;;;;;;15.20;14.60;;;;;;;;5006910;28;9694;-82
2021/07/23 13:35:15;;;;;;;;;15.80;14.80;;;;;;;;5005938;28;9008;-80
2021/07/23 13:37:45;;;;;;;;;14.20;14.20;;;;;;;;5007358;28;8882;-79
2021/07/23 13:40:17;;;;;;;;;14.00;13.80;;;;;;;;5005744;28;9691;-84
2021/07/23 13:42:47;;;;;;;;;14.20;14.20;;;;;;;;5009550;28;8894;-86
2021/07/23 13:45:15;;;;;;;;;14.20;14.20;;;;;;;;5007710;28;8961;-81
2021/07/23 13:47:42;;;;;;;;;17.00;14.60;;;;;;;;5007714;28;8878;-81
2021/07/23 13:50:11;;;;;;;;;15.40;15.40;;;;;;;;5003986;28;8866;-80
2021/07/23 13:52:39;;;;;;;;;14.00;12.20;;;;;;;;5006882;28;9657;-82
2021/07/23 13:55:07;;;;;;;;;12.00;12.00;;;;;;;;5008356;28;8853;-87
2021/07/23 13:57:36;;;;;;;;;11.20;11.20;;;;;;;;5008902;28;8900;-88
2021/07/23 14:00:07;;;;;;;;;11.20;11.20;;;;;;;;5008260;28;8916;-86
2021/07/23 14:02:35;;;;;;;;;11.20;11.20;;;;;;;;5011799;28;8800;-84
2021/07/23 14:05:02;;;;;;;;;14.00;11.40;;;;;;;;5010328;28;8887;-85
2021/07/23 14:07:30;;;;;;;;;8.60;8.60;;;;;;;;5009390;28;8847;-82
2021/07/23 14:09:59;;;;;;;;;9.60;9.60;;;;;;;;5006294;28;8949;-86
2021/07/23 14:12:27;;;;;;;;;13.60;13.60;;;;;;;;5008879;28;8933;-83
2021/07/23 14:14:56;;;;;;;;;15.40;13.60;;;;;;;;5007403;28;8868;-85
2021/07/23 14:17:23;;;;;;;;;14.00;12.40;;;;;;;;5008685;28;8945;-84
2021/07/23 14:19:50;;;;;;;;;12.60;11.00;;;;;;;;5008665;28;8879;-80
2021/07/23 14:22:17;;;;;;;;;14.40;12.60;;;;;;;;5008147;28;9019;-90
2021/07/23 14:24:45;;;;;;;;;12.60;11.00;;;;;;;;5006753;28;8865;-86
2021/07/23 14:27:12;;;;;;;;;8.20;8.20;;;;;;;;5003399;28;8895;-87
2021/07/23 14:29:40;;;;;;;;;10.00;10.00;;;;;;;;5009361;28;8899;-81
2021/07/23 14:32:09;;;;;;;;;13.60;13.60;;;;;;;;5024123;28;8805;-81
2021/07/23 14:34:36;;;;;;;;;16.00;14.40;;;;;;;;5026335;28;8888;-81
2021/07/23 14:37:06;;;;;;;;;15.20;12.20;;;;;;;;5028275;28;8873;-89
2021/07/23 14:39:34;;;;;;;;;16.00;14.60;;;;;;;;5030077;28;8873;-87